PILOTS ONLINE: 288    ATC ONLINE: 60

Location

IATA BLH
City Blythe
Country  United States
Latitude 33° 37' 9" N
Longitude 114° 43' 1" W
Elevation 399 ft
Type Medium Airport

Weather

METAR
2014/07/11 01:52
KBLH 110152Z AUTO 22011KT 10SM CLR 41/02 A2971 RMK AO2 SLP054 T04060017
TAF
2014/07/11 01:21
TAF 
      AMD KBLH 110120Z 1101/1124 24009KT P6SM SCT250 
     FM110800 24005KT P6SM SCT250 
     FM111800 25007KT P6SM FEW100 SCT250

Runways

08/26 6543 ft / 150 ft
17/35 5800 ft / 100 ft

Outbound flights

Inbound flights


Spotted incorrect airport information? Please login with your VATSIM ID.